Time;durP1;ratioP1;P1;durP2;ratioP2;P2;SDS_P1;SDS_P2;PMS_P1;PMS_P2;Temp;Humidity;BMP_temperature;BMP_pressure;BME280_temperature;BME280_humidity;BME280_pressure;Samples;Min_cycle;Max_cycle;Signal;HPM_P1;HPM_P2
2020/12/13 00:00:00;;;;;;;69.30;32.97;;;;;;;2.75;84.29;99918.98;5261311;54;1137018;-82
2020/12/13 00:05:07;;;;;;;74.50;35.73;;;;;;;2.76;84.14;99915.41;5286771;54;1138419;-82
2020/12/13 00:10:13;;;;;;;75.08;34.50;;;;;;;2.76;84.19;99921.94;5266772;54;1136173;-82
2020/12/13 00:15:19;;;;;;;73.07;33.73;;;;;;;2.73;84.21;99932.58;5267427;54;1136289;-82
2020/12/13 00:20:24;;;;;;;79.03;35.57;;;;;;;2.71;84.19;99931.35;5267468;54;1136243;-82
2020/12/13 00:25:30;;;;;;;74.53;35.93;;;;;;;2.70;84.11;99940.11;5368572;55;21132;-82
2020/12/13 00:30:35;;;;;;;75.57;35.73;;;;;;;2.66;84.21;99949.02;5307530;54;1132225;-82
2020/12/13 00:35:41;;;;;;;72.33;34.60;;;;;;;2.63;84.37;99947.87;5264308;54;1136362;-81
2020/12/13 00:40:48;;;;;;;73.07;34.47;;;;;;;2.61;84.33;99951.03;5266238;54;1136230;-81
2020/12/13 00:45:54;;;;;;;72.13;35.40;;;;;;;2.67;84.29;99957.70;5267088;54;1138384;-82
2020/12/13 00:50:59;;;;;;;74.87;35.43;;;;;;;2.69;84.25;99956.70;5267042;54;1137086;-82
2020/12/13 00:56:05;;;;;;;76.57;36.87;;;;;;;2.65;84.23;99962.16;5284418;54;1136274;-82
2020/12/13 01:01:11;;;;;;;83.60;39.08;;;;;;;2.60;84.31;99968.11;5267617;54;1136243;-82
2020/12/13 01:06:25;;;;;;;86.00;42.80;;;;;;;2.59;84.26;99969.03;5304341;54;1136270;-82
2020/12/13 01:11:33;;;;;;;77.93;36.03;;;;;;;2.60;84.27;99976.75;5266425;54;1136203;-82
2020/12/13 01:16:38;;;;;;;87.12;40.95;;;;;;;2.64;84.26;99987.88;5328308;54;1138306;-82
2020/12/13 01:21:48;;;;;;;89.10;39.77;;;;;;;2.61;84.39;99981.52;5265791;54;1136606;-83
2020/12/13 01:26:51;;;;;;;77.93;38.30;;;;;;;2.61;84.37;99984.97;5286868;54;1136387;-82
2020/12/13 01:31:57;;;;;;;78.50;36.93;;;;;;;2.62;84.27;99987.95;5261199;54;1136252;-82
2020/12/13 01:37:03;;;;;;;83.10;36.50;;;;;;;2.65;84.14;99993.02;5267002;54;1136134;-82
2020/12/13 01:42:08;;;;;;;82.67;39.57;;;;;;;2.64;84.08;99993.10;5264425;54;1136635;-82
2020/12/13 01:47:15;;;;;;;82.30;39.80;;;;;;;2.59;84.18;99992.52;5286599;54;1136175;-82
2020/12/13 01:57:37;;;;;;;83.90;36.50;;;;;;;2.47;84.25;99988.31;5266271;54;1136188;-82
2020/12/13 02:02:48;;;;;;;86.50;40.17;;;;;;;2.43;84.53;99988.11;5261995;54;1136217;-82
2020/12/13 02:07:56;;;;;;;79.10;36.63;;;;;;;2.47;84.41;99988.77;5265904;54;1136316;-82
2020/12/13 02:13:02;;;;;;;81.60;39.60;;;;;;;2.43;84.52;99991.19;5263479;54;1136131;-82
2020/12/13 02:18:08;;;;;;;88.07;40.77;;;;;;;2.45;84.55;100001.05;5253127;54;1136299;-83
2020/12/13 02:23:13;;;;;;;80.10;38.10;;;;;;;2.46;84.38;100000.98;5249374;54;1138341;-82
2020/12/13 02:28:19;;;;;;;83.33;39.43;;;;;;;2.48;84.39;100005.66;5252325;54;1138829;-82
2020/12/13 02:33:24;;;;;;;83.73;38.50;;;;;;;2.51;84.36;100005.12;5252192;54;1138359;-82
2020/12/13 02:38:31;;;;;;;80.83;37.33;;;;;;;2.51;84.36;100005.12;5249527;54;1138702;-82
2020/12/13 02:43:36;;;;;;;88.67;40.87;;;;;;;2.55;84.23;100017.09;5293263;55;1138452;-82
2020/12/13 02:48:42;;;;;;;85.37;41.00;;;;;;;2.57;84.14;100012.64;5246273;54;1138414;-82
2020/12/13 02:53:47;;;;;;;86.27;41.67;;;;;;;2.53;84.20;100014.56;5290247;54;1138235;-82
2020/12/13 02:58:53;;;;;;;95.32;45.12;;;;;;;2.51;84.33;100017.71;5252284;54;1138386;-82
2020/12/13 03:03:58;;;;;;;86.30;41.40;;;;;;;2.50;84.08;100010.80;5273000;54;1138324;-82
2020/12/13 03:09:04;;;;;;;86.13;41.63;;;;;;;2.54;84.20;100014.95;5252370;54;1138486;-82
2020/12/13 03:14:09;;;;;;;89.57;44.33;;;;;;;2.54;84.08;100010.19;5253053;55;1138408;-82
2020/12/13 03:19:15;;;;;;;99.20;44.63;;;;;;;2.60;84.19;100029.45;5325832;55;1138213;-82
2020/12/13 03:24:20;;;;;;;94.07;41.93;;;;;;;2.58;84.30;100036.52;5287210;54;1138343;-82
2020/12/13 03:29:26;;;;;;;91.47;42.40;;;;;;;2.59;84.23;100039.52;5266600;54;1138328;-82
2020/12/13 03:34:31;;;;;;;94.97;43.20;;;;;;;2.60;83.93;100045.12;5307530;54;1138702;-82
2020/12/13 03:39:37;;;;;;;82.57;38.67;;;;;;;2.61;83.85;100051.53;5266538;54;1140542;-82
2020/12/13 03:44:42;;;;;;;100.00;43.97;;;;;;;2.57;83.78;100053.95;5329103;55;1136333;-82
2020/12/13 03:49:48;;;;;;;91.23;42.93;;;;;;;2.51;83.92;100066.00;5368901;55;21139;-82
2020/12/13 03:54:53;;;;;;;98.07;40.93;;;;;;;2.47;84.07;100066.61;5287334;54;1134164;-82
2020/12/13 03:59:59;;;;;;;88.03;39.80;;;;;;;2.55;84.04;100068.00;5268659;54;1138282;-82
2020/12/13 04:05:04;;;;;;;100.90;45.73;;;;;;;2.53;83.79;100065.46;5327499;54;1140565;-82
2020/12/13 04:10:10;;;;;;;92.47;43.10;;;;;;;2.47;83.89;100067.91;5266608;54;1140529;-83
2020/12/13 04:15:16;;;;;;;93.43;45.63;;;;;;;2.46;84.07;100062.77;5266595;54;1138566;-82
2020/12/13 04:20:21;;;;;;;96.57;41.17;;;;;;;2.43;83.88;100062.49;5307815;54;1138278;-82
2020/12/13 04:25:27;;;;;;;92.30;41.83;;;;;;;2.44;83.88;100067.25;5266232;54;1138505;-82
2020/12/13 04:30:32;;;;;;;95.75;44.10;;;;;;;2.42;83.94;100069.09;5266330;54;1138321;-82
2020/12/13 04:35:39;;;;;;;96.63;43.17;;;;;;;2.37;84.08;100064.10;5258038;54;1138274;-82
2020/12/13 04:40:45;;;;;;;100.58;43.65;;;;;;;2.31;84.14;100060.95;5266865;54;1138626;-82
2020/12/13 04:45:51;;;;;;;89.67;40.03;;;;;;;2.32;84.08;100075.69;5285879;55;1140306;-82
2020/12/13 04:50:58;;;;;;;95.97;42.30;;;;;;;2.33;84.06;100079.52;5265625;54;1138309;-82
2020/12/13 04:56:08;;;;;;;96.27;45.37;;;;;;;2.37;84.13;100079.76;5263994;54;1138278;-82
2020/12/13 05:01:14;;;;;;;105.20;46.73;;;;;;;2.33;84.09;100087.35;5287058;54;1138625;-82
2020/12/13 05:06:21;;;;;;;98.37;43.10;;;;;;;2.33;84.32;100090.42;5347965;54;1138359;-82
2020/12/13 05:11:26;;;;;;;88.93;41.03;;;;;;;2.33;84.01;100090.42;5261472;54;1138691;-82
2020/12/13 05:16:32;;;;;;;92.40;42.50;;;;;;;2.33;83.95;100092.56;5266091;54;1140334;-82
2020/12/13 05:21:38;;;;;;;103.07;46.03;;;;;;;2.36;84.08;100092.42;5296240;54;1138467;-82
2020/12/13 05:26:44;;;;;;;98.37;45.80;;;;;;;2.37;84.19;100091.96;5251594;54;1140485;-82
2020/12/13 05:31:50;;;;;;;96.13;44.50;;;;;;;2.37;84.16;100104.55;5272425;54;1138393;-82
2020/12/13 05:36:57;;;;;;;114.73;49.77;;;;;;;2.37;83.87;100107.62;5246495;54;1138704;-82
2020/12/13 05:42:03;;;;;;;102.97;46.00;;;;;;;2.40;83.90;100116.14;5251651;55;1142465;-82
2020/12/13 05:52:20;;;;;;;107.00;51.23;;;;;;;2.38;84.05;100131.49;5234290;54;1140337;-82
2020/12/13 05:57:26;;;;;;;137.45;59.38;;;;;;;2.33;83.94;100126.49;5252676;54;1140520;-82
2020/12/13 06:02:33;;;;;;;111.93;49.90;;;;;;;2.30;83.77;100132.31;5248877;54;1140417;-82
2020/12/13 06:07:43;;;;;;;87.05;45.28;;;;;;;2.33;83.79;100142.15;5333610;54;1138338;-81
2020/12/13 06:12:53;;;;;;;108.07;48.13;;;;;;;2.36;83.96;100143.31;5259863;55;1138433;-82
2020/12/13 06:18:00;;;;;;;102.40;47.77;;;;;;;2.29;83.83;100144.52;5245734;54;1140578;-82
2020/12/13 06:23:08;;;;;;;103.03;47.50;;;;;;;2.19;83.87;100154.19;5254093;54;1140584;-82
2020/12/13 06:28:14;;;;;;;100.42;46.45;;;;;;;2.16;83.86;100146.05;5295425;54;1140359;-82
2020/12/13 06:33:22;;;;;;;92.97;44.17;;;;;;;2.23;83.98;100149.21;5252396;54;1144865;-82
2020/12/13 06:38:29;;;;;;;103.80;45.70;;;;;;;2.22;83.92;100151.44;5254477;54;1138367;-82
2020/12/13 06:43:54;;;;;;;101.30;48.13;;;;;;;2.15;83.99;100150.88;5225311;55;1140349;-84
2020/12/13 06:49:00;;;;;;;104.20;46.27;;;;;;;2.15;84.00;100159.16;5247522;54;1140521;-84
2020/12/13 06:54:09;;;;;;;105.23;46.37;;;;;;;2.14;83.86;100160.92;5253834;54;1140762;-84
2020/12/13 06:59:18;;;;;;;102.93;47.30;;;;;;;2.17;83.88;100163.84;5252020;54;1140641;-84
2020/12/13 07:04:37;;;;;;;128.50;56.07;;;;;;;2.16;83.98;100173.44;5256616;54;1140402;-84
2020/12/13 07:09:40;;;;;;;110.10;48.13;;;;;;;2.15;84.07;100182.18;5250348;54;1140702;-83
2020/12/13 07:14:46;;;;;;;104.90;46.63;;;;;;;2.21;84.19;100193.64;5248156;54;1140731;-83
2020/12/13 07:19:55;;;;;;;102.70;46.40;;;;;;;2.25;84.01;100193.88;5250769;54;1140804;-84
2020/12/13 07:25:01;;;;;;;83.77;38.17;;;;;;;2.30;84.12;100197.55;5291763;54;1140392;-83
2020/12/13 07:30:12;;;;;;;109.97;47.33;;;;;;;2.25;83.89;100212.60;5247605;54;1138805;-84
2020/12/13 07:35:15;;;;;;;99.67;45.93;;;;;;;2.24;83.82;100213.06;5251068;54;1140354;-83
2020/12/13 07:40:22;;;;;;;101.53;45.45;;;;;;;2.28;83.77;100221.59;5249662;54;1138370;-84
2020/12/13 07:45:28;;;;;;;117.10;52.93;;;;;;;2.24;83.90;100228.72;5249669;54;1140452;-84
2020/12/13 07:50:46;;;;;;;119.27;59.17;;;;;;;2.19;83.83;100229.39;5307362;54;1138368;-83
2020/12/13 07:55:52;;;;;;;108.27;45.37;;;;;;;2.16;83.97;100237.81;5248356;54;1140750;-83
2020/12/13 08:01:11;;;;;;;106.97;45.77;;;;;;;2.15;83.94;100240.03;5250366;54;1140884;-83
2020/12/13 08:12:40;;;;;;;112.23;47.60;;;;;;;2.14;84.10;100252.72;4749229;60;1140672;-83
2020/12/13 08:18:04;;;;;;;109.50;46.60;;;;;;;2.11;84.17;100260.22;4766424;60;1140560;-84
2020/12/13 08:23:11;;;;;;;100.20;47.10;;;;;;;2.16;84.21;100266.05;4751132;60;1140744;-84
2020/12/13 08:28:17;;;;;;;102.38;45.63;;;;;;;2.19;84.27;100267.22;4760895;61;1140531;-84
2020/12/13 08:33:25;;;;;;;114.97;48.80;;;;;;;2.22;84.31;100279.28;4746236;61;1140848;-83
2020/12/13 08:38:30;;;;;;;104.67;44.30;;;;;;;2.28;84.22;100284.22;4744567;61;1141369;-84
2020/12/13 08:43:36;;;;;;;102.03;47.17;;;;;;;2.32;84.01;100288.35;4744038;61;1141043;-83
2020/12/13 08:48:41;;;;;;;110.87;47.67;;;;;;;2.31;83.83;100291.87;4764580;61;1140522;-84
2020/12/13 08:53:52;;;;;;;117.50;51.13;;;;;;;2.26;83.90;100296.03;4746228;61;1140896;-83
2020/12/13 08:59:01;;;;;;;108.43;50.37;;;;;;;2.27;83.86;100299.48;4744705;61;1140624;-84
2020/12/13 09:04:25;;;;;;;113.37;51.30;;;;;;;2.32;83.89;100304.85;4745444;61;1140437;-84
2020/12/13 09:09:33;;;;;;;132.23;62.50;;;;;;;2.36;84.03;100311.63;5078804;56;1140822;-83
2020/12/13 09:14:39;;;;;;;116.03;53.20;;;;;;;2.34;83.82;100313.46;5146851;56;1140464;-83
2020/12/13 09:19:55;;;;;;;109.80;47.93;;;;;;;2.33;83.94;100314.84;5099215;56;1140384;-83
2020/12/13 09:25:01;;;;;;;117.43;51.00;;;;;;;2.36;83.70;100310.78;5074081;55;1140479;-83
2020/12/13 09:30:06;;;;;;;121.80;54.90;;;;;;;2.38;83.56;100308.49;5172781;55;1141000;-84
2020/12/13 09:35:13;;;;;;;122.47;58.23;;;;;;;2.39;83.67;100315.86;5213421;55;1140362;-85
2020/12/13 09:40:20;;;;;;;109.80;50.00;;;;;;;2.33;83.65;100310.92;5180320;55;1140652;-83
2020/12/13 09:45:26;;;;;;;121.42;58.33;;;;;;;2.39;83.61;100314.56;5217302;55;1140750;-83
2020/12/13 09:50:35;;;;;;;150.67;66.37;;;;;;;2.40;83.45;100311.87;5174936;55;1140350;-83
2020/12/13 09:55:43;;;;;;;129.27;56.10;;;;;;;2.46;83.75;100324.63;5170383;55;1140732;-83
2020/12/13 10:00:50;;;;;;;117.40;54.43;;;;;;;2.51;83.84;100330.94;5175713;55;1140632;-83
2020/12/13 10:06:09;;;;;;;130.90;54.27;;;;;;;2.54;83.51;100332.56;5216383;55;1140341;-84
2020/12/13 10:11:03;;;;;;;129.60;59.93;;;;;;;2.59;83.38;100333.20;5214319;55;1140456;-84
2020/12/13 10:16:14;;;;;;;131.53;58.87;;;;;;;2.64;83.52;100341.64;5177889;55;1140253;-84
2020/12/13 10:21:32;;;;;;;98.12;41.60;;;;;;;2.62;83.33;100336.95;5176396;55;1141020;-84
2020/12/13 10:26:39;;;;;;;117.60;53.50;;;;;;;2.60;83.19;100345.34;5176773;55;1138312;-83
2020/12/13 10:31:46;;;;;;;129.63;56.20;;;;;;;2.58;83.11;100345.41;5177570;55;1140399;-84
2020/12/13 10:36:54;;;;;;;133.23;57.53;;;;;;;2.64;83.62;100337.27;5235245;55;1140521;-84
2020/12/13 10:42:04;;;;;;;154.03;73.43;;;;;;;2.70;83.58;100336.13;5231684;55;1140411;-84
2020/12/13 10:47:14;;;;;;;123.50;51.57;;;;;;;2.71;83.51;100334.76;5248521;55;1140322;-83
2020/12/13 10:52:23;;;;;;;111.63;51.63;;;;;;;2.73;83.51;100329.47;5226730;55;1147353;-83
2020/12/13 10:57:29;;;;;;;115.20;51.13;;;;;;;2.80;83.25;100324.31;5253519;55;1140560;-83
2020/12/13 11:02:34;;;;;;;106.43;49.20;;;;;;;2.89;83.30;100308.21;5234269;55;1140349;-83
2020/12/13 11:07:41;;;;;;;101.17;48.90;;;;;;;2.98;83.20;100307.74;5233322;55;1140347;-84
2020/12/13 11:12:46;;;;;;;112.03;49.67;;;;;;;3.05;83.35;100306.98;5234167;55;1140787;-83
2020/12/13 11:17:51;;;;;;;120.77;49.97;;;;;;;3.17;83.06;100306.36;5252859;55;1141049;-83
2020/12/13 11:22:57;;;;;;;119.20;51.90;;;;;;;3.28;82.96;100307.12;5229790;55;1142518;-84
2020/12/13 11:28:04;;;;;;;97.33;44.60;;;;;;;3.35;82.75;100315.89;5233475;55;1140353;-84
2020/12/13 11:33:10;;;;;;;72.63;31.03;;;;;;;3.38;82.57;100314.41;5235511;55;1138400;-83
2020/12/13 11:38:17;;;;;;;149.83;61.80;;;;;;;3.44;81.88;100321.09;5224513;55;1138338;-85
2020/12/13 11:43:22;;;;;;;112.07;49.23;;;;;;;3.49;82.06;100320.41;5330730;55;21063;-83
2020/12/13 11:48:28;;;;;;;101.30;46.55;;;;;;;3.48;81.09;100329.17;5233423;55;1136293;-83
2020/12/13 11:53:33;;;;;;;110.03;51.97;;;;;;;3.44;81.17;100326.33;5233446;55;1140574;-84
2020/12/13 11:58:41;;;;;;;139.20;57.63;;;;;;;3.43;81.10;100332.02;5229038;55;1140497;-84
2020/12/13 12:03:47;;;;;;;164.00;58.23;;;;;;;3.46;81.53;100326.64;5231356;55;1143163;-84
2020/12/13 12:08:53;;;;;;;95.42;41.95;;;;;;;3.51;81.86;100324.61;5249743;55;1140494;-84
2020/12/13 12:13:58;;;;;;;110.03;50.57;;;;;;;3.48;81.22;100323.95;5234645;55;1138353;-84
2020/12/13 12:19:04;;;;;;;99.50;44.40;;;;;;;3.52;81.70;100337.22;5272762;55;1140452;-83
2020/12/13 12:24:09;;;;;;;140.07;51.27;;;;;;;3.57;81.34;100336.53;5217308;55;1140366;-84
2020/12/13 12:29:15;;;;;;;150.97;61.60;;;;;;;3.57;81.33;100340.45;5286211;55;1151164;-84
2020/12/13 12:34:20;;;;;;;251.37;102.40;;;;;;;3.53;81.46;100340.22;5261438;55;1140387;-84
2020/12/13 12:39:26;;;;;;;231.77;71.47;;;;;;;3.54;81.70;100341.91;5215637;55;1144844;-83
2020/12/13 12:44:31;;;;;;;191.90;78.97;;;;;;;3.50;81.57;100343.02;5214600;55;1140920;-84
2020/12/13 12:49:37;;;;;;;105.50;48.77;;;;;;;3.56;81.62;100343.99;5216481;55;1140299;-84
2020/12/13 12:54:42;;;;;;;127.20;54.40;;;;;;;3.60;81.35;100348.15;5238482;55;1142392;-82
2020/12/13 13:00:16;;;;;;;114.62;48.35;;;;;;;3.63;81.68;100345.84;5217674;55;1140553;-83
2020/12/13 13:05:02;;;;;;;119.20;54.03;;;;;;;3.63;81.21;100352.37;5240015;55;1140433;-81
2020/12/13 13:10:14;;;;;;;126.80;56.33;;;;;;;3.57;81.22;100344.84;5207080;55;1140842;-82
2020/12/13 13:15:17;;;;;;;606.73;253.85;;;;;;;3.53;81.31;100351.53;5221263;55;1140394;-83
2020/12/13 13:20:19;;;;;;;181.63;96.47;;;;;;;3.57;81.27;100356.60;5219553;55;1142836;-84
2020/12/13 13:25:25;;;;;;;125.80;56.27;;;;;;;3.60;81.10;100357.30;5220884;55;1140495;-83
2020/12/13 13:30:30;;;;;;;127.37;57.77;;;;;;;3.64;81.31;100359.30;5235845;55;1140287;-84
2020/12/13 13:35:36;;;;;;;124.07;58.60;;;;;;;3.63;81.47;100364.99;5216764;55;1140721;-84
2020/12/13 13:40:41;;;;;;;136.45;68.62;;;;;;;3.63;81.47;100370.22;5210087;55;1140455;-84
2020/12/13 13:51:10;;;;;;;194.67;93.33;;;;;;;3.65;81.00;100377.99;5216716;55;1142453;-83
2020/12/13 13:56:20;;;;;;;115.17;49.23;;;;;;;3.66;81.15;100386.23;5233236;55;1140322;-84
2020/12/13 14:01:25;;;;;;;246.13;104.77;;;;;;;3.62;81.15;100389.45;5222083;55;1140776;-84
2020/12/13 14:06:52;;;;;;;128.37;59.80;;;;;;;3.61;81.40;100390.38;5257140;55;1142402;-83
2020/12/13 14:11:46;;;;;;;97.03;46.50;;;;;;;3.64;81.36;100404.61;5245602;55;1140549;-84
2020/12/13 14:16:52;;;;;;;124.93;55.03;;;;;;;3.69;81.09;100405.20;5259687;55;1140299;-84
2020/12/13 14:21:57;;;;;;;99.07;46.97;;;;;;;3.70;80.94;100409.50;5220423;55;1140400;-84
2020/12/13 14:27:03;;;;;;;193.83;87.73;;;;;;;3.68;80.95;100411.81;5222538;55;1138508;-83
2020/12/13 14:32:09;;;;;;;210.00;89.23;;;;;;;3.63;80.96;100417.30;5244948;55;1140268;-83
2020/12/13 14:37:14;;;;;;;164.13;69.33;;;;;;;3.62;80.96;100418.22;5323199;55;21156;-83
2020/12/13 14:42:20;;;;;;;225.30;87.40;;;;;;;3.64;81.00;100421.60;5223197;55;1138818;-84
2020/12/13 14:47:25;;;;;;;195.75;69.85;;;;;;;3.66;80.92;100420.22;5237425;55;1140520;-84
2020/12/13 14:52:31;;;;;;;156.50;62.80;;;;;;;3.64;81.12;100427.30;5212129;55;1140848;-82
2020/12/13 14:57:36;;;;;;;468.55;137.15;;;;;;;3.60;81.13;100435.75;5260130;55;1140532;-83
2020/12/13 15:02:42;;;;;;;706.53;268.33;;;;;;;3.62;80.98;100436.52;5217403;55;1142703;-83
2020/12/13 15:07:48;;;;;;;718.93;199.33;;;;;;;3.65;81.02;100438.98;5255423;55;1144618;-83
2020/12/13 15:12:53;;;;;;;808.77;213.00;;;;;;;3.68;81.15;100440.11;5216325;55;1142475;-83
2020/12/13 15:17:59;;;;;;;190.27;65.77;;;;;;;3.69;81.08;100454.04;5235055;55;1142318;-84
2020/12/13 15:23:05;;;;;;;135.20;58.03;;;;;;;3.66;81.27;100452.91;5223676;55;1140389;-84
2020/12/13 15:28:10;;;;;;;195.70;81.80;;;;;;;3.64;81.10;100459.98;5235384;55;1140314;-83
2020/12/13 15:33:16;;;;;;;141.07;69.10;;;;;;;3.68;81.21;100468.88;5210581;55;1142886;-83
2020/12/13 15:38:21;;;;;;;159.03;77.20;;;;;;;3.73;81.27;100469.97;5290609;55;1142537;-82
2020/12/13 15:43:27;;;;;;;111.13;50.10;;;;;;;3.73;81.24;100479.12;5230551;55;1140519;-82
2020/12/13 15:48:33;;;;;;;104.00;46.15;;;;;;;3.68;81.30;100487.19;5232736;55;1140675;-82
2020/12/13 15:53:43;;;;;;;108.00;44.40;;;;;;;3.61;81.35;100487.13;5258234;55;1140573;-82
2020/12/13 15:58:46;;;;;;;104.77;47.60;;;;;;;3.64;81.59;100486.14;5229847;55;1142859;-82
2020/12/13 16:03:53;;;;;;;119.20;55.87;;;;;;;3.76;82.13;100495.52;5253001;55;1142382;-83
2020/12/13 16:08:59;;;;;;;148.50;64.97;;;;;;;3.82;82.04;100505.66;5229545;55;1140620;-84
2020/12/13 16:14:04;;;;;;;258.60;96.30;;;;;;;3.86;82.03;100503.28;5228205;55;1140532;-82
2020/12/13 16:19:10;;;;;;;184.17;73.30;;;;;;;3.75;81.63;100502.13;5232444;55;1140397;-82
2020/12/13 16:24:21;;;;;;;213.77;98.80;;;;;;;3.66;81.61;100509.98;5246507;55;1140414;-82
2020/12/13 16:29:23;;;;;;;412.07;166.33;;;;;;;3.65;81.78;100508.75;5232961;55;1142587;-82
2020/12/13 16:34:28;;;;;;;380.50;134.75;;;;;;;3.60;82.04;100510.28;5228392;55;1143361;-82
2020/12/13 16:39:39;;;;;;;204.10;83.80;;;;;;;3.53;82.15;100511.48;5134669;55;1142694;-82
2020/12/13 16:44:46;;;;;;;150.87;62.43;;;;;;;3.49;82.66;100519.96;5112993;55;1140894;-83
2020/12/13 16:55:03;;;;;;;176.17;74.00;;;;;;;3.46;82.46;100528.41;5192284;55;1140504;-82
2020/12/13 17:00:07;;;;;;;160.63;69.47;;;;;;;3.47;82.70;100530.10;5198841;55;1140868;-84
2020/12/13 17:05:13;;;;;;;139.00;60.30;;;;;;;3.46;82.60;100529.71;5252879;54;1140699;-82
2020/12/13 17:10:18;;;;;;;149.23;64.27;;;;;;;3.53;82.84;100535.86;5190084;55;1142605;-82
2020/12/13 17:15:25;;;;;;;188.23;80.93;;;;;;;3.65;82.80;100541.45;5185699;55;1142854;-83
2020/12/13 17:20:31;;;;;;;222.48;94.13;;;;;;;3.59;82.50;100539.96;5191099;55;1141008;-83
2020/12/13 17:25:38;;;;;;;165.70;72.40;;;;;;;3.47;82.54;100547.94;5186553;55;1140728;-82
2020/12/13 17:30:45;;;;;;;122.70;53.83;;;;;;;3.51;82.80;100552.08;5189743;55;1140858;-82
2020/12/13 17:35:52;;;;;;;149.07;68.53;;;;;;;3.57;82.66;100550.95;5189175;55;1142659;-82
2020/12/13 17:40:59;;;;;;;200.13;84.67;;;;;;;3.57;82.72;100560.56;5184146;55;1140885;-82
2020/12/13 17:46:05;;;;;;;184.70;76.53;;;;;;;3.54;82.76;100553.70;5187199;54;1141040;-82
2020/12/13 17:56:24;;;;;;;196.60;82.03;;;;;;;3.43;82.78;100560.77;5188397;55;1142736;-83
2020/12/13 18:01:29;;;;;;;198.00;83.63;;;;;;;3.46;82.81;100558.47;5262612;54;1142689;-82
2020/12/13 18:06:35;;;;;;;230.10;93.07;;;;;;;3.42;83.00;100566.91;5235376;55;1140975;-82
2020/12/13 18:11:41;;;;;;;192.37;81.42;;;;;;;3.37;83.15;100564.97;5236416;55;1140835;-82
2020/12/13 18:16:49;;;;;;;284.93;118.80;;;;;;;3.36;83.11;100570.30;5249938;54;1140563;-82
2020/12/13 18:22:00;;;;;;;137.83;64.80;;;;;;;3.41;83.28;100577.44;5263658;54;1144545;-82
2020/12/13 18:27:25;;;;;;;;;;;;;;;;;;;;;
2020/12/13 18:33:21;;;;;;;141.87;64.30;;;;;;;3.42;83.29;100570.83;4972096;56;1140486;-82
2020/12/13 18:39:07;;;;;;;335.80;114.97;;;;;;;3.39;83.40;100576.66;4496882;65;1140504;-82
2020/12/13 18:44:36;;;;;;;179.68;72.95;;;;;;;3.45;83.52;100578.54;4457179;65;1145239;-82
2020/12/13 18:49:42;;;;;;;167.13;70.25;;;;;;;3.53;83.47;100582.93;4510292;65;1142437;-82
2020/12/13 18:54:47;;;;;;;232.67;85.17;;;;;;;3.47;83.33;100585.86;4452426;65;1140576;-82
2020/12/13 18:59:59;;;;;;;171.05;73.70;;;;;;;3.45;83.45;100594.69;4451786;65;1141341;-82
2020/12/13 19:05:12;;;;;;;150.40;65.13;;;;;;;3.47;83.38;100595.01;4476203;65;1140551;-82
2020/12/13 19:10:14;;;;;;;144.30;65.23;;;;;;;3.47;83.33;100596.77;4535693;62;1143043;-82
2020/12/13 19:15:21;;;;;;;175.20;73.90;;;;;;;3.48;83.46;100607.63;4962598;57;21160;-82
2020/12/13 19:20:27;;;;;;;219.47;83.97;;;;;;;3.48;83.55;100614.16;5077501;56;1136321;-83
2020/12/13 19:25:33;;;;;;;144.87;59.53;;;;;;;3.53;83.47;100620.84;5018211;57;1140437;-82
2020/12/13 19:30:40;;;;;;;149.23;59.43;;;;;;;3.56;83.31;100616.39;5079473;56;1142492;-81
2020/12/13 19:35:45;;;;;;;206.93;75.47;;;;;;;3.54;83.44;100623.84;5199689;56;21298;-82
2020/12/13 19:40:51;;;;;;;126.17;54.80;;;;;;;3.53;83.53;100631.30;5121468;55;1136170;-82
2020/12/13 19:45:57;;;;;;;136.82;58.78;;;;;;;3.45;83.35;100632.59;5169472;56;1140392;-82
2020/12/13 19:51:02;;;;;;;199.90;81.90;;;;;;;3.40;83.27;100631.49;5170329;56;1140787;-82
2020/12/13 19:56:12;;;;;;;170.53;72.27;;;;;;;3.39;83.37;100632.86;5150016;56;1142599;-82
2020/12/13 20:01:17;;;;;;;154.90;69.00;;;;;;;3.37;83.52;100638.16;5127137;55;1142535;-82
2020/12/13 20:06:23;;;;;;;169.63;75.67;;;;;;;3.35;83.58;100644.41;5179816;56;1140944;-82
2020/12/13 20:11:29;;;;;;;191.43;79.83;;;;;;;3.31;83.83;100647.61;5166908;56;1140651;-82
2020/12/13 20:16:38;;;;;;;216.07;83.40;;;;;;;3.33;83.74;100655.39;5170814;56;1147706;-82
2020/12/13 21:05:05;;;;;;;134.55;55.85;;;;;;;3.32;83.60;100671.98;5243201;55;1140279;-82
2020/12/13 21:14:47;;;;;;;154.47;66.97;;;;;;;3.36;83.61;100681.39;5234440;55;1142401;-82
2020/12/13 21:19:24;;;;;;;166.37;65.42;;;;;;;3.34;83.71;100676.23;5273974;55;1140996;-82
2020/12/13 21:46:03;;;;;;;393.10;157.30;;;;;;;3.35;83.98;100688.39;4995877;58;1142564;-82
2020/12/13 22:28:15;;;;;;;134.67;54.53;;;;;;;3.43;84.13;100699.79;5260276;56;21155;-81
2020/12/13 22:33:21;;;;;;;125.73;52.97;;;;;;;3.42;84.03;100700.25;5164636;55;1136411;-82
2020/12/13 22:38:26;;;;;;;130.30;54.63;;;;;;;3.41;84.05;100699.86;5163982;55;1140499;-82
2020/12/13 22:43:32;;;;;;;137.63;53.40;;;;;;;3.43;83.76;100693.25;5181387;56;1140431;-82
2020/12/13 22:48:37;;;;;;;143.72;55.55;;;;;;;3.43;83.76;100693.25;5224205;55;1142845;-82
2020/12/13 22:53:44;;;;;;;168.68;61.95;;;;;;;3.41;83.83;100691.16;5161996;55;1142654;-82
2020/12/13 22:58:49;;;;;;;152.87;59.47;;;;;;;3.36;83.97;100687.44;5163561;55;1140513;-82
2020/12/13 23:03:55;;;;;;;145.70;58.17;;;;;;;3.32;84.07;100685.91;5164712;55;1140530;-82
2020/12/13 23:09:00;;;;;;;157.53;58.50;;;;;;;3.31;84.05;100691.20;5204611;55;1140334;-81
2020/12/13 23:14:06;;;;;;;155.47;60.57;;;;;;;3.37;84.21;100689.59;5164090;55;1142529;-82
2020/12/13 23:19:12;;;;;;;169.27;63.40;;;;;;;3.42;84.20;100691.09;5181780;55;1142917;-82
2020/12/13 23:24:18;;;;;;;172.90;64.50;;;;;;;3.43;84.25;100687.56;5164496;55;1140385;-82
2020/12/13 23:29:23;;;;;;;155.43;59.90;;;;;;;3.38;84.25;100688.22;5164528;55;1140450;-81
2020/12/13 23:34:29;;;;;;;175.57;65.37;;;;;;;3.38;84.21;100693.45;5204724;55;1140438;-82
2020/12/13 23:39:35;;;;;;;191.18;68.97;;;;;;;3.40;84.09;100703.38;5164235;55;1142933;-82
2020/12/13 23:44:41;;;;;;;197.80;76.80;;;;;;;3.44;84.21;100698.41;5165121;55;1142471;-82
2020/12/13 23:49:47;;;;;;;181.30;67.97;;;;;;;3.53;84.59;100702.36;5198331;55;1140469;-82
2020/12/13 23:54:53;;;;;;;199.20;72.23;;;;;;;3.53;84.35;100703.67;5238318;55;1140513;-81
2020/12/13 23:59:59;;;;;;;179.93;66.33;;;;;;;3.49;84.34;100698.22;5178011;55;1140557;-82
